Date,TemperatureHighF,TemperatureAvgF,TemperatureLowF,DewpointHighF,DewpointAvgF,DewpointLowF,HumidityHigh,HumidityAvg,HumidityLow,PressureMaxIn,PressureMinIn,WindSpeedMaxMPH,WindSpeedAvgMPH,GustSpeedMaxMPH,PrecipitationSumIn
2013-3-1,58,50,45,46,41,38,78,71,60,30.22,29.94,0,-999,0,0.00
2013-3-2,55,53,50,44,42,41,71,67,63,29.99,29.85,0,-999,0,0.00
2013-3-3,54,49,42,40,37,33,69,62,53,30.15,30.07,0,-999,0,0.00
2013-3-4,57,56,46,46,45,40,80,67,64,30.24,30.19,0,-999,0,0.00
2013-3-6,62,58,54,51,48,43,81,70,55,29.98,29.84,0,-999,0,0.00
2013-3-7,60,59,58,58,56,56,92,91,90,29.86,29.85,0,-999,0,0.00
2013-3-8,60,58,56,57,56,55,98,92,89,29.88,29.74,0,-999,0,0.00
2013-3-9,61,58,56,57,54,53,95,89,81,29.89,29.79,0,-999,0,0.00
2013-3-10,61,58,56,57,56,53,96,91,85,29.80,29.69,0,-999,0,0.00
2013-3-11,60,58,55,56,55,52,95,88,84,29.72,29.65,0,-999,0,0.00
2013-3-12,59,55,50,54,51,48,94,85,76,29.69,29.57,0,-999,0,0.00
2013-3-13,58,53,51,54,50,48,95,90,83,29.61,29.36,0,-999,0,0.00
2013-3-14,51,49,48,50,48,46,97,94,88,29.23,29.15,0,-999,0,0.00
2013-3-15,45,44,42,37,34,31,82,67,60,29.77,29.54,0,-999,0,0.00
2013-3-16,43,43,42,31,29,28,64,58,55,30.14,30.12,0,-999,0,0.00
2013-3-17,52,47,41,40,36,31,67,66,65,30.20,29.96,0,-999,0,0.00
2013-3-18,62,60,59,52,50,48,78,70,65,29.78,29.68,0,-999,0,0.00
2013-3-19,59,58,54,48,47,45,73,65,59,29.92,29.86,0,-999,0,0.00
2013-3-20,60,57,50,44,43,41,80,60,52,29.87,29.82,0,-999,0,0.00
2013-3-21,60,58,55,51,45,41,86,62,51,29.97,29.83,0,-999,0,0.00
2013-3-22,58,56,51,50,48,44,78,75,73,30.00,29.98,0,-999,0,0.00
2013-3-23,52,52,52,47,47,47,83,83,83,30.00,30.00,0,-999,0,0.00
2013-3-24,68,64,60,48,47,46,63,55,45,29.73,29.54,0,-999,0,0.00
2013-3-25,62,58,56,54,51,48,86,76,63,29.57,29.40,0,-999,0,0.00
2013-3-26,59,56,53,54,51,49,89,84,78,29.66,29.57,0,-999,0,0.00
2013-3-27,60,56,53,55,52,49,88,85,77,29.85,29.66,0,-999,0,0.00
2013-3-28,58,56,54,54,52,49,88,86,84,29.97,29.88,0,-999,0,0.00
2013-3-29,64,61,58,57,56,54,90,83,76,29.93,29.87,0,-999,0,0.00
2013-3-30,63,58,54,58,55,51,94,89,82,29.87,29.60,0,-999,0,0.00
2013-3-31,59,57,54,55,52,48,93,82,71,29.76,29.62,0,-999,0,0.00